createdAt,value
2023-04-01T00:02:04.305Z,99085.69
2023-04-01T00:04:30.752Z,99089.94
2023-04-01T00:06:57.704Z,99095.16
2023-04-01T00:09:24.189Z,99088.28
2023-04-01T00:11:50.597Z,99094.34
2023-04-01T00:14:17.225Z,99089.94
2023-04-01T00:16:43.781Z,99103.00
2023-04-01T00:19:10.331Z,99095.16
2023-04-01T00:21:37.745Z,99091.84
2023-04-01T00:24:04.307Z,99105.59
2023-04-01T00:26:30.734Z,99108.91
2023-04-01T00:28:57.314Z,99105.34
2023-04-01T00:31:23.808Z,99105.34
2023-04-01T00:33:50.482Z,99106.16
2023-04-01T00:36:20.277Z,99108.53
2023-04-01T00:38:47.909Z,99106.72
2023-04-01T00:41:17.926Z,99104.00
2023-04-01T00:43:47.339Z,99103.16
2023-04-01T00:46:14.612Z,99106.72
2023-04-01T00:48:46.637Z,99108.63
2023-04-01T00:51:18.632Z,99107.00
2023-04-01T00:53:48.107Z,99108.06
2023-04-01T00:56:49.677Z,99108.06
2023-04-01T00:59:21.901Z,99117.69
2023-04-01T01:01:48.387Z,99109.19
2023-04-01T01:04:26.678Z,99117.13
2023-04-01T01:07:32.327Z,99117.38
2023-04-01T01:10:26.008Z,99120.69
2023-04-01T01:13:08.575Z,99120.69
2023-04-01T01:16:03.387Z,99122.50
2023-04-01T01:18:50.162Z,99133.28
2023-04-01T01:21:27.112Z,99129.19
2023-04-01T01:24:08.902Z,99128.34
2023-04-01T01:26:41.309Z,99129.19
2023-04-01T01:29:17.486Z,99132.06
2023-04-01T01:31:46.826Z,99132.06
2023-04-01T01:34:32.764Z,99128.72
2023-04-01T01:37:06.579Z,99125.41
2023-04-01T01:39:35.976Z,99136.81
2023-04-01T01:42:07.173Z,99129.13
2023-04-01T01:44:35.892Z,99137.31
2023-04-01T01:47:03.108Z,99142.53
2023-04-01T01:49:33.231Z,99141.88
2023-04-01T01:51:59.636Z,99136.19
2023-04-01T01:54:26.297Z,99138.94
2023-04-01T01:57:02.464Z,99140.00
2023-04-01T01:59:30.501Z,99140.16
2023-04-01T02:01:58.128Z,99141.22
2023-04-01T02:04:25.129Z,99144.75
2023-04-01T02:07:01.236Z,99145.88
2023-04-01T02:09:27.858Z,99144.34
2023-04-01T02:12:00.315Z,99149.56
2023-04-01T02:14:42.640Z,99145.66
2023-04-01T02:17:13.420Z,99157.88
2023-04-01T02:19:47.032Z,99152.56
2023-04-01T02:22:18.877Z,99149.81
2023-04-01T02:24:46.491Z,99159.16
2023-04-01T02:27:13.506Z,99148.16
2023-04-01T02:29:40.332Z,99157.88
2023-04-01T02:32:08.428Z,99155.66
2023-04-01T02:34:35.517Z,99162.53
2023-04-01T02:37:02.500Z,99163.22
2023-04-01T02:39:28.879Z,99166.19
2023-04-01T02:41:55.423Z,99158.50
2023-04-01T02:44:21.843Z,99160.31
2023-04-01T02:46:48.317Z,99160.31
2023-04-01T02:49:14.843Z,99169.91
2023-04-01T02:51:41.359Z,99163.97
2023-04-01T02:54:07.783Z,99173.59
2023-04-01T02:56:34.181Z,99176.31
2023-04-01T02:59:00.626Z,99170.16
2023-04-01T03:01:27.297Z,99170.97
2023-04-01T03:03:53.767Z,99177.97
2023-04-01T03:06:20.327Z,99173.84
2023-04-01T03:08:46.866Z,99175.47
2023-04-01T03:11:13.861Z,99177.13
2023-04-01T03:13:41.006Z,99178.91
2023-04-01T03:16:07.854Z,99185.66
2023-04-01T03:18:34.358Z,99183.19
2023-04-01T03:21:15.397Z,99184.69
2023-04-01T03:23:41.792Z,99194.19
2023-04-01T03:26:08.766Z,99197.63
2023-04-01T03:28:35.885Z,99191.44
2023-04-01T03:31:02.517Z,99200.34
2023-04-01T03:33:29.000Z,99205.44
2023-04-01T03:35:55.681Z,99205.31
2023-04-01T03:38:22.144Z,99204.38
2023-04-01T03:40:48.657Z,99211.25
2023-04-01T03:43:15.133Z,99212.22
2023-04-01T03:45:46.675Z,99212.78
2023-04-01T03:48:13.131Z,99218.81
2023-04-01T03:50:39.693Z,99218.00
2023-04-01T03:53:06.486Z,99226.66
2023-04-01T03:55:33.065Z,99220.63
2023-04-01T03:58:00.593Z,99220.47
2023-04-01T04:00:27.010Z,99223.09
2023-04-01T04:02:53.552Z,99224.72
2023-04-01T04:05:20.144Z,99224.72
2023-04-01T04:07:46.600Z,99228.28
2023-04-01T04:10:13.067Z,99240.38
2023-04-01T04:12:39.470Z,99239.44
2023-04-01T04:15:06.575Z,99241.81
2023-04-01T04:17:33.106Z,99243.47
2023-04-01T04:19:59.558Z,99247.72
2023-04-01T04:22:26.399Z,99252.09
2023-04-01T04:24:52.853Z,99253.88
2023-04-01T04:27:19.321Z,99256.34
2023-04-01T04:29:45.956Z,99261.56
2023-04-01T04:32:12.410Z,99262.44
2023-04-01T04:34:38.904Z,99263.34
2023-04-01T04:37:05.324Z,99269.28
2023-04-01T04:39:31.726Z,99269.97
2023-04-01T04:41:58.178Z,99279.47
2023-04-01T04:44:24.664Z,99287.16
2023-04-01T04:46:51.265Z,99288.00
2023-04-01T04:49:17.882Z,99292.16
2023-04-01T04:51:44.351Z,99294.66
2023-04-01T04:54:10.783Z,99303.16
2023-04-01T04:56:37.166Z,99309.19
2023-04-01T04:59:03.658Z,99304.84
2023-04-01T05:01:30.361Z,99316.91
2023-04-01T05:03:57.118Z,99313.25
2023-04-01T05:06:23.824Z,99315.00
2023-04-01T05:08:50.431Z,99325.44
2023-04-01T05:11:19.034Z,99324.50
2023-04-01T05:13:45.896Z,99328.75
2023-04-01T05:16:15.403Z,99333.03
2023-04-01T05:18:41.951Z,99336.59
2023-04-01T05:21:11.120Z,99341.81
2023-04-01T05:23:38.852Z,99348.00
2023-04-01T05:26:11.610Z,99350.59
2023-04-01T05:28:39.197Z,99348.81
2023-04-01T05:31:06.931Z,99355.81
2023-04-01T05:33:34.152Z,99367.06
2023-04-01T05:36:12.810Z,99360.06
2023-04-01T05:38:39.816Z,99366.25
2023-04-01T05:41:06.749Z,99374.09
2023-04-01T05:43:37.422Z,99375.72
2023-04-01T05:46:04.065Z,99380.13
2023-04-01T05:48:30.629Z,99380.94
2023-04-01T05:50:57.178Z,99391.25
2023-04-01T05:53:23.637Z,99382.59
2023-04-01T05:55:50.072Z,99395.53
2023-04-01T05:58:16.499Z,99391.16
2023-04-01T06:00:42.950Z,99399.78
2023-04-01T06:03:09.637Z,99403.13
2023-04-01T06:05:44.578Z,99411.78
2023-04-01T06:08:19.623Z,99411.78
2023-04-01T06:11:00.663Z,99410.81
2023-04-01T06:13:35.496Z,99412.59
2023-04-01T06:16:08.245Z,99425.53
2023-04-01T06:19:08.716Z,99422.91
2023-04-01T06:21:42.465Z,99432.41
2023-04-01T06:24:14.202Z,99431.59
2023-04-01T06:27:01.618Z,99437.63
2023-04-01T06:29:43.204Z,99439.28
2023-04-01T06:32:18.596Z,99445.22
2023-04-01T06:35:09.558Z,99452.09
2023-04-01T06:37:42.126Z,99448.53
2023-04-01T06:40:35.915Z,99455.44
2023-04-01T06:43:14.347Z,99461.34
2023-04-01T06:46:04.980Z,99463.00
2023-04-01T06:48:50.526Z,99468.25
2023-04-01T06:51:31.180Z,99483.03
2023-04-01T06:54:18.842Z,99480.31
2023-04-01T06:56:49.525Z,99486.38
2023-04-01T06:59:28.841Z,99491.34
2023-04-01T07:02:00.228Z,99493.72
2023-04-01T07:04:30.581Z,99484.09
2023-04-01T07:07:00.717Z,99497.16
2023-04-01T07:09:37.883Z,99499.63
2023-04-01T07:12:16.684Z,99505.72
2023-04-01T07:14:45.412Z,99512.44
2023-04-01T07:17:23.862Z,99517.44
2023-04-01T07:20:15.674Z,99529.66
2023-04-01T07:22:49.118Z,99524.06
2023-04-01T07:25:19.506Z,99525.50
2023-04-01T07:27:46.713Z,99530.50
2023-04-01T07:30:22.760Z,99529.53
2023-04-01T07:33:07.996Z,99545.66
2023-04-01T07:35:51.500Z,99546.50
2023-04-01T07:38:39.133Z,99556.00
2023-04-01T07:41:19.225Z,99559.28
2023-04-01T07:44:00.745Z,99557.63
2023-04-01T07:46:46.721Z,99564.78
2023-04-01T07:49:25.236Z,99567.75
2023-04-01T07:52:05.831Z,99564.19
2023-04-01T07:54:41.860Z,99574.75
2023-04-01T07:57:28.490Z,99573.69
2023-04-01T08:00:16.296Z,99577.94
2023-04-01T08:03:04.074Z,99587.56
2023-04-01T08:05:55.641Z,99587.56
2023-04-01T08:09:07.253Z,99596.38
2023-04-01T08:11:49.267Z,99602.28
2023-04-01T08:14:33.919Z,99610.84
2023-04-01T08:17:06.234Z,99607.25
2023-04-01T08:19:46.211Z,99616.28
2023-04-01T08:22:24.315Z,99613.66
2023-04-01T08:24:54.957Z,99619.84
2023-04-01T08:27:32.505Z,99621.75
2023-04-01T08:30:20.973Z,99627.19
2023-04-01T08:32:54.261Z,99638.50
2023-04-01T08:35:44.927Z,99642.75
2023-04-01T08:38:30.509Z,99656.41
2023-04-01T08:41:02.387Z,99650.97
2023-04-01T08:43:53.649Z,99652.75
2023-04-01T08:47:05.132Z,99653.44
2023-04-01T08:49:56.532Z,99665.81
2023-04-01T08:52:51.810Z,99661.41
2023-04-01T08:55:50.674Z,99668.78
2023-04-01T08:58:46.444Z,99677.53
2023-04-01T09:01:34.642Z,99677.41
2023-04-01T09:04:40.520Z,99683.22
2023-04-01T09:07:31.448Z,99690.25
2023-04-01T09:10:22.514Z,99684.88
2023-04-01T09:13:08.286Z,99695.56
2023-04-01T09:15:52.765Z,99694.84
2023-04-01T09:18:39.178Z,99692.94
2023-04-01T09:21:23.283Z,99701.63
2023-04-01T09:24:17.689Z,99700.78
2023-04-01T09:26:59.761Z,99705.31
2023-04-01T09:29:46.139Z,99713.03
2023-04-01T09:32:31.382Z,99714.72
2023-04-01T09:35:19.614Z,99717.44
2023-04-01T09:38:18.912Z,99716.34
2023-04-01T09:40:56.466Z,99724.88
2023-04-01T09:43:29.280Z,99726.91
2023-04-01T09:46:20.675Z,99736.88
2023-04-01T09:49:22.891Z,99735.16
2023-04-01T09:52:04.508Z,99735.44
2023-04-01T09:55:00.887Z,99731.53
2023-04-01T09:57:52.580Z,99737.63
2023-04-01T10:00:44.612Z,99744.84
2023-04-01T10:03:41.978Z,99743.72
2023-04-01T10:06:17.492Z,99749.41
2023-04-01T10:09:13.275Z,99739.19
2023-04-01T10:11:56.601Z,99745.91
2023-04-01T10:14:36.363Z,99755.41
2023-04-01T10:17:28.101Z,99754.22
2023-04-01T10:20:30.116Z,99755.03
2023-04-01T10:23:07.769Z,99763.63
2023-04-01T10:25:52.885Z,99759.88
2023-04-01T10:28:58.623Z,99773.47
2023-04-01T10:31:25.081Z,99764.56
2023-04-01T10:34:25.188Z,99771.31
2023-04-01T10:36:53.651Z,99768.22
2023-04-01T10:39:48.159Z,99776.03
2023-04-01T10:42:36.549Z,99786.00
2023-04-01T10:45:18.264Z,99782.50
2023-04-01T10:48:03.824Z,99785.81
2023-04-01T10:50:54.808Z,99785.28
2023-04-01T10:53:30.362Z,99791.19
2023-04-01T10:56:18.650Z,99795.09
2023-04-01T10:59:12.648Z,99790.41
2023-04-01T11:02:16.380Z,99798.25
2023-04-01T11:05:06.561Z,99792.81
2023-04-01T11:08:06.651Z,99797.47
2023-04-01T11:10:58.653Z,99796.38
2023-04-01T11:13:51.340Z,99793.44
2023-04-01T11:16:49.398Z,99812.06
2023-04-01T11:19:29.672Z,99818.50
2023-04-01T11:22:25.972Z,99814.41
2023-04-01T11:24:52.353Z,99824.66
2023-04-01T11:27:39.787Z,99828.34
2023-04-01T11:30:26.111Z,99824.56
2023-04-01T11:33:05.480Z,99831.78
2023-04-01T11:35:56.558Z,99837.25
2023-04-01T11:38:35.153Z,99841.91
2023-04-01T11:41:26.424Z,99848.44
2023-04-01T11:44:10.709Z,99842.38
2023-04-01T11:46:55.507Z,99853.63
2023-04-01T11:49:48.750Z,99852.06
2023-04-01T11:52:31.991Z,99861.97
2023-04-01T11:55:19.979Z,99867.22
2023-04-01T11:58:30.983Z,99866.97
2023-04-01T12:01:27.868Z,99864.84
2023-04-01T12:04:15.987Z,99875.56
2023-04-01T12:07:06.852Z,99880.81
2023-04-01T12:09:41.225Z,99886.53
2023-04-01T12:12:15.657Z,99886.47
2023-04-01T12:14:56.428Z,99892.75
2023-04-01T12:17:47.710Z,99897.41
2023-04-01T12:20:29.195Z,99892.16
2023-04-01T12:22:58.404Z,99901.94
2023-04-01T12:25:28.822Z,99898.16
2023-04-01T12:28:10.591Z,99902.81
2023-04-01T12:30:43.572Z,99906.97
2023-04-01T12:33:19.124Z,99916.81
2023-04-01T12:35:54.725Z,99908.13
2023-04-01T12:38:32.398Z,99925.38
2023-04-01T12:41:13.269Z,99923.88
2023-04-01T12:43:55.018Z,99928.00
2023-04-01T12:46:42.768Z,99929.19
2023-04-01T12:49:21.099Z,99926.44
2023-04-01T12:52:02.951Z,99931.16
2023-04-01T12:55:07.110Z,99932.50
2023-04-01T12:58:03.981Z,99933.22
2023-04-01T13:00:59.121Z,99937.31
2023-04-01T13:04:03.148Z,99945.56
2023-04-01T13:06:42.083Z,99946.41
2023-04-01T13:09:30.411Z,99947.09
2023-04-01T13:12:47.797Z,99950.53
2023-04-01T13:15:18.015Z,99962.63
2023-04-01T13:18:16.032Z,99959.78
2023-04-01T13:20:55.244Z,99968.84
2023-04-01T13:23:35.278Z,99976.84
2023-04-01T13:26:13.622Z,99981.50
2023-04-01T13:29:07.469Z,99978.16
2023-04-01T13:31:59.672Z,99988.19
2023-04-01T13:34:45.462Z,99990.97
2023-04-01T13:37:39.839Z,99997.88
2023-04-01T13:40:26.860Z,99992.97
2023-04-01T13:43:29.494Z,99996.31
2023-04-01T13:46:02.124Z,100000.50
2023-04-01T13:48:47.425Z,100004.41
2023-04-01T13:51:32.759Z,99999.31
2023-04-01T13:54:20.380Z,100008.50
2023-04-01T13:56:56.498Z,100008.84
2023-04-01T13:59:39.322Z,100010.63
2023-04-01T14:02:43.442Z,100009.19
2023-04-01T14:05:41.893Z,100013.38
2023-04-01T14:08:51.032Z,100031.78
2023-04-01T14:11:54.511Z,100038.13
2023-04-01T14:14:53.774Z,100035.25
2023-04-01T14:17:38.628Z,100047.00
2023-04-01T14:20:23.703Z,100059.94
2023-04-01T14:23:20.657Z,100060.31
2023-04-01T14:26:03.156Z,100069.13
2023-04-01T14:28:41.841Z,100072.06
2023-04-01T14:31:49.825Z,100081.09
2023-04-01T14:34:26.185Z,100087.59
2023-04-01T14:37:20.990Z,100090.34
2023-04-01T14:40:25.063Z,100095.06
2023-04-01T14:43:05.629Z,100092.03
2023-04-01T14:45:38.227Z,100100.16
2023-04-01T14:48:31.338Z,100109.13
2023-04-01T14:51:09.314Z,100111.03
2023-04-01T14:54:01.259Z,100115.31
2023-04-01T14:56:38.112Z,100126.00
2023-04-01T14:59:17.481Z,100127.66
2023-04-01T15:02:11.883Z,100129.34
2023-04-01T15:04:57.172Z,100139.91
2023-04-01T15:07:42.458Z,100138.13
2023-04-01T15:10:54.826Z,100154.41
2023-04-01T15:13:30.993Z,100150.88
2023-04-01T15:16:04.151Z,100162.16
2023-04-01T15:18:55.010Z,100171.44
2023-04-01T15:21:43.305Z,100176.69
2023-04-01T15:24:23.249Z,100179.22
2023-04-01T15:27:22.495Z,100180.53
2023-04-01T15:30:20.680Z,100188.31
2023-04-01T15:32:55.664Z,100195.38
2023-04-01T15:35:27.786Z,100201.56
2023-04-01T15:38:09.368Z,100201.44
2023-04-01T15:41:17.930Z,100212.34
2023-04-01T15:43:46.352Z,100216.13
2023-04-01T15:46:40.830Z,100215.63
2023-04-01T15:49:28.851Z,100216.78
2023-04-01T15:52:17.029Z,100232.72
2023-04-01T15:55:02.112Z,100231.34
2023-04-01T15:57:52.609Z,100245.59
2023-04-01T16:00:42.248Z,100245.19
2023-04-01T16:03:21.220Z,100262.25
2023-04-01T16:06:25.563Z,100256.28
2023-04-01T16:09:19.357Z,100261.81
2023-04-01T16:12:24.537Z,100269.53
2023-04-01T16:15:07.930Z,100272.28
2023-04-01T16:17:45.216Z,100280.00
2023-04-01T16:20:21.032Z,100288.88
2023-04-01T16:23:02.537Z,100289.53
2023-04-01T16:25:44.761Z,100298.41
2023-04-01T16:28:24.402Z,100297.56
2023-04-01T16:30:57.187Z,100297.78
2023-04-01T16:33:40.004Z,100308.53
2023-04-01T16:36:29.370Z,100323.56
2023-04-01T16:39:41.888Z,100319.38
2023-04-01T16:42:08.284Z,100326.59
2023-04-01T16:45:16.161Z,100333.78
2023-04-01T16:47:57.081Z,100336.84
2023-04-01T16:50:28.950Z,100346.75
2023-04-01T16:53:14.433Z,100358.75
2023-04-01T16:56:02.550Z,100352.91
2023-04-01T16:58:37.270Z,100357.38
2023-04-01T17:01:23.864Z,100372.53
2023-04-01T17:04:19.796Z,100381.78
2023-04-01T17:06:59.103Z,100394.28
2023-04-01T17:09:52.363Z,100399.81
2023-04-01T17:12:36.536Z,100407.75
2023-04-01T17:15:48.687Z,100414.94
2023-04-01T17:18:36.193Z,100419.41
2023-04-01T17:21:20.345Z,100432.66
2023-04-01T17:23:53.011Z,100437.03
2023-04-01T17:26:44.253Z,100436.19
2023-04-01T17:29:23.872Z,100449.31
2023-04-01T17:32:10.600Z,100451.94
2023-04-01T17:34:48.420Z,100460.53
2023-04-01T17:37:42.654Z,100470.13
2023-04-01T17:40:36.705Z,100477.00
2023-04-01T17:43:20.626Z,100474.59
2023-04-01T17:45:54.910Z,100476.38
2023-04-01T17:48:40.678Z,100493.06
2023-04-01T17:51:25.449Z,100501.00
2023-04-01T17:54:00.222Z,100507.97
2023-04-01T17:57:25.382Z,100509.06
2023-04-01T18:00:19.973Z,100518.69
2023-04-01T18:03:12.526Z,100525.78
2023-04-01T18:06:03.785Z,100540.78
2023-04-01T18:09:17.764Z,100552.13
2023-04-01T18:11:53.497Z,100548.69
2023-04-01T18:14:46.477Z,100558.19
2023-04-01T18:17:27.863Z,100561.84
2023-04-01T18:20:31.313Z,100574.13
2023-04-01T18:23:18.003Z,100577.84
2023-04-01T18:25:49.580Z,100582.97
2023-04-01T18:28:28.418Z,100592.75
2023-04-01T18:31:06.956Z,100605.25
2023-04-01T18:33:56.041Z,100603.66
2023-04-01T18:36:43.027Z,100609.69
2023-04-01T18:39:39.357Z,100617.53
2023-04-01T18:42:31.357Z,100626.38
2023-04-01T18:45:01.279Z,100635.97
2023-04-01T18:47:43.812Z,100634.28
2023-04-01T18:50:44.779Z,100644.78
2023-04-01T18:53:25.749Z,100667.59
2023-04-01T18:56:23.936Z,100664.28
2023-04-01T18:59:33.774Z,100668.72
2023-04-01T19:02:23.104Z,100674.88
2023-04-01T19:05:04.743Z,100680.22
2023-04-01T19:07:55.956Z,100684.50
2023-04-01T19:10:34.853Z,100695.88
2023-04-01T19:13:17.062Z,100699.41
2023-04-01T19:16:05.754Z,100705.53
2023-04-01T19:19:13.045Z,100704.72
2023-04-01T19:22:00.525Z,100716.06
2023-04-01T19:24:42.345Z,100728.44
2023-04-01T19:27:39.448Z,100724.13
2023-04-01T19:30:18.305Z,100741.66
2023-04-01T19:33:05.605Z,100743.41
2023-04-01T19:35:42.959Z,100755.78
2023-04-01T19:38:28.612Z,100758.72
2023-04-01T19:41:05.625Z,100759.63
2023-04-01T19:43:41.576Z,100764.94
2023-04-01T19:46:29.869Z,100767.88
2023-04-01T19:49:22.556Z,100780.22
2023-04-01T19:52:06.928Z,100783.63
2023-04-01T19:54:58.482Z,100788.72
2023-04-01T19:57:42.256Z,100796.72
2023-04-01T20:00:32.669Z,100806.47
2023-04-01T20:03:27.507Z,100811.16
2023-04-01T20:06:22.770Z,100818.22
2023-04-01T20:08:49.220Z,100826.28
2023-04-01T20:11:24.164Z,100837.78
2023-04-01T20:14:02.227Z,100842.31
2023-04-01T20:16:50.981Z,100840.13
2023-04-01T20:19:36.760Z,100855.06
2023-04-01T20:22:11.148Z,100850.75
2023-04-01T20:24:47.451Z,100864.56
2023-04-01T20:27:19.372Z,100866.22
2023-04-01T20:29:57.917Z,100873.34
2023-04-01T20:32:32.972Z,100879.41
2023-04-01T20:35:18.706Z,100890.84
2023-04-01T20:38:22.535Z,100897.09
2023-04-01T20:40:58.267Z,100903.41
2023-04-01T20:43:34.670Z,100911.38
2023-04-01T20:46:24.006Z,100916.72
2023-04-01T20:49:21.504Z,100921.03
2023-04-01T20:51:59.740Z,100931.50
2023-04-01T20:54:47.527Z,100934.91
2023-04-01T20:57:18.772Z,100940.00
2023-04-01T20:59:59.469Z,100941.09
2023-04-01T21:03:03.478Z,100941.94
2023-04-01T21:05:41.944Z,100950.72
2023-04-01T21:08:29.551Z,100955.09
2023-04-01T21:11:23.380Z,100970.03
2023-04-01T21:14:16.286Z,100963.19
2023-04-01T21:16:48.810Z,100968.63
2023-04-01T21:19:46.127Z,100976.81
2023-04-01T21:22:21.604Z,100980.50
2023-04-01T21:25:02.626Z,100986.69
2023-04-01T21:27:51.690Z,101004.34
2023-04-01T21:30:55.621Z,101005.47
2023-04-01T21:33:43.815Z,101018.56
2023-04-01T21:36:16.257Z,101021.50
2023-04-01T21:39:01.668Z,101024.41
2023-04-01T21:41:31.431Z,101040.91
2023-04-01T21:44:10.151Z,101029.66
2023-04-01T21:46:55.146Z,101041.97
2023-04-01T21:49:43.320Z,101053.22
2023-04-01T21:52:39.034Z,101053.31
2023-04-01T21:55:25.338Z,101055.13
2023-04-01T21:58:03.762Z,101075.13
2023-04-01T22:00:39.124Z,101073.59
2023-04-01T22:03:36.929Z,101065.03
2023-04-01T22:06:06.715Z,101085.84
2023-04-01T22:08:39.189Z,101078.78
2023-04-01T22:11:11.644Z,101085.06
2023-04-01T22:13:51.024Z,101092.84
2023-04-01T22:16:28.525Z,101099.88
2023-04-01T22:19:20.859Z,101111.28
2023-04-01T22:22:12.125Z,101114.91
2023-04-01T22:24:51.655Z,101116.03
2023-04-01T22:27:28.119Z,101124.72
2023-04-01T22:30:19.643Z,101119.50
2023-04-01T22:32:49.285Z,101124.00
2023-04-01T22:35:25.100Z,101127.59
2023-04-01T22:37:57.378Z,101137.88
2023-04-01T22:40:42.773Z,101149.16
2023-04-01T22:43:13.845Z,101145.81
2023-04-01T22:45:49.846Z,101150.22
2023-04-01T22:48:26.279Z,101159.97
2023-04-01T22:51:07.819Z,101160.97
2023-04-01T22:54:07.579Z,101170.53
2023-04-01T22:56:38.668Z,101170.63
2023-04-01T22:59:14.057Z,101175.94
2023-04-01T23:01:57.936Z,101175.03
2023-04-01T23:04:34.530Z,101183.75
2023-04-01T23:07:04.808Z,101183.78
2023-04-01T23:09:34.541Z,101191.78
2023-04-01T23:12:13.247Z,101197.91
2023-04-01T23:14:52.444Z,101203.97
2023-04-01T23:17:43.112Z,101205.03
2023-04-01T23:20:19.000Z,101217.28
2023-04-01T23:22:56.779Z,101218.13
2023-04-01T23:25:37.926Z,101227.69
2023-04-01T23:28:16.977Z,101224.19
2023-04-01T23:30:43.429Z,101229.50
2023-04-01T23:33:22.040Z,101236.53
2023-04-01T23:35:54.477Z,101234.69
2023-04-01T23:38:26.985Z,101248.56
2023-04-01T23:40:55.480Z,101245.16
2023-04-01T23:43:24.854Z,101254.00
2023-04-01T23:45:51.518Z,101248.94
2023-04-01T23:48:22.958Z,101260.31
2023-04-01T23:50:49.541Z,101256.94
2023-04-01T23:53:24.200Z,101262.97
2023-04-01T23:55:52.668Z,101263.81
2023-04-01T23:58:43.666Z,101269.13
